»·PEaware :: AAL2548 KPHX-KSNA

AAL2548 :: KPHX-KSNA

FLIGHT INFORMATION

Flight Status: Arrived
Operator:
American Airlines
More flights by this operator :: More flights under this callsign
Pilot: Alex S. (7186)
Aircraft: BOEING 737-800
(B738)
More flights by this aircraft type
Origin: KPHX Phoenix Sky Harbor Intl
United States
Destination: KSNA John Wayne-Orange Co
United States
More flights between these airports :: More routes between these airports
Route: +IZZZO6 HRRBR EMLLD DSNEE1
File this flight plan on PilotEdge
Remarks: PBN / A1B1C1D1S1S2 DOF / 170923 REG / N76517 EET / KZLA0019 OPR / AAL RMK / TCAS SIMBRIEF
Altitude:
(Current/Filed)
30,000ft
Speed:
(Current/Filed)
475kts
Departed: 23-Sep-17 11:54 AM
Arrived: 23-Sep-17 12:48 PM
Distance/Time
Traveled:
293nm/0:54
Distance/Time
To Go:
Arrived

Flight Plot

Page will automatically refresh every two minutes.

Flight plan parsing failed; only flown route is shown


Map Options




Map Legend


Flown Route
Filed Route
Departure Airport
Arrival Airport
Navaid (VOR, NDB)
Fix

Horizontal Profiles

Position Reports

Time Latitude Longitude Heading Altitude Ground
Speed
23-Sep-17 11:36 33.437477 -111.998619 270 1142ft 0kts
23-Sep-17 11:37 33.437477 -111.998619 270 1142ft 0kts
23-Sep-17 11:38 33.437477 -111.998619 270 1142ft 0kts
23-Sep-17 11:39 33.437477 -111.998619 270 1142ft 0kts
23-Sep-17 11:40 33.437477 -111.998619 270 1143ft 0kts
23-Sep-17 11:41 33.437477 -111.998619 270 1143ft 0kts
23-Sep-17 11:42 33.437477 -111.998619 270 1143ft 0kts
23-Sep-17 11:43 33.437477 -111.998619 270 1143ft 0kts
23-Sep-17 11:44 33.437477 -111.998619 270 1143ft 0kts
23-Sep-17 11:45 33.437477 -111.998619 270 1143ft 0kts
23-Sep-17 11:46 33.437477 -111.998619 270 1143ft 0kts
23-Sep-17 11:47 33.437477 -111.998619 270 1143ft 0kts
23-Sep-17 11:48 33.437477 -111.998619 270 1143ft 0kts
23-Sep-17 11:49 33.437477 -111.998619 270 1143ft 0kts
23-Sep-17 11:50 33.437411 -111.997969 298 1143ft 2kts
23-Sep-17 11:51 33.437302 -111.997792 313 1143ft 0kts
23-Sep-17 11:52 33.437302 -111.997792 313 1143ft 0kts
23-Sep-17 11:53 33.438975 -111.998493 285 1143ft 13kts
23-Sep-17 11:54 33.439031 -112.006152 271 1143ft 26kts
23-Sep-17 11:55 33.439010 -112.015060 271 1143ft 26kts
23-Sep-17 11:56 33.438982 -112.023092 270 1143ft 16kts
23-Sep-17 11:57 33.439599 -112.029671 2 1143ft 12kts
23-Sep-17 11:58 33.440855 -112.016033 89 1143ft 140kts
23-Sep-17 11:59 33.440128 -111.959260 97 3516ft 189kts
23-Sep-17 12:00 33.433184 -111.883264 117 5175ft 252kts
23-Sep-17 12:01 33.377752 -111.847286 198 7898ft 247kts
23-Sep-17 12:02 33.353274 -111.916386 275 9978ft 250kts
23-Sep-17 12:03 33.366502 -112.004440 276 12265ft 298kts
23-Sep-17 12:04 33.382296 -112.113596 277 13622ft 367kts
23-Sep-17 12:05 33.400429 -112.241771 278 15199ft 403kts
23-Sep-17 12:06 33.419324 -112.375454 278 17407ft 411kts
23-Sep-17 12:07 33.437995 -112.511711 278 19236ft 420kts
23-Sep-17 12:08 33.451048 -112.652303 271 20713ft 431kts
23-Sep-17 12:09 33.454385 -112.797558 277 21943ft 439kts
23-Sep-17 12:10 33.479160 -112.941884 283 22962ft 447kts
23-Sep-17 12:11 33.506292 -113.088194 283 23830ft 454kts
23-Sep-17 12:12 33.534210 -113.237008 283 24596ft 459kts
23-Sep-17 12:13 33.561718 -113.387206 283 25282ft 464kts
23-Sep-17 12:14 33.589503 -113.538914 284 25802ft 468kts
23-Sep-17 12:15 33.618041 -113.691814 284 26322ft 468kts
23-Sep-17 12:16 33.646602 -113.843328 287 26968ft 464kts
23-Sep-17 12:17 33.696493 -113.985785 295 27665ft 461kts
23-Sep-17 12:18 33.748439 -114.125968 290 28477ft 459kts
23-Sep-17 12:19 33.773216 -114.276309 280 29324ft 460kts
23-Sep-17 12:20 33.790727 -114.428465 279 29764ft 458kts
23-Sep-17 12:21 33.808390 -114.580079 280 29761ft 459kts
23-Sep-17 12:22 33.825838 -114.732080 279 29763ft 460kts
23-Sep-17 12:23 33.842918 -114.885090 279 29766ft 461kts
23-Sep-17 12:24 33.859853 -115.037890 279 29771ft 462kts
23-Sep-17 12:25 33.876570 -115.190915 279 29773ft 462kts
23-Sep-17 12:26 33.893685 -115.344720 279 29780ft 462kts
23-Sep-17 12:27 33.910226 -115.498080 279 29786ft 462kts
23-Sep-17 12:28 33.926456 -115.651953 278 29792ft 461kts
23-Sep-17 12:29 33.937367 -115.806002 276 29797ft 462kts
23-Sep-17 12:30 33.948233 -115.958521 276 29727ft 455kts
23-Sep-17 12:31 33.958491 -116.109442 276 25984ft 454kts
23-Sep-17 12:32 33.958550 -116.256595 264 24027ft 422kts
23-Sep-17 12:33 33.942125 -116.386564 264 23290ft 388kts
23-Sep-17 12:34 33.926342 -116.513644 263 21285ft 378kts
23-Sep-17 12:35 33.910519 -116.637967 262 19060ft 375kts
23-Sep-17 12:36 33.894584 -116.760735 262 16978ft 364kts
23-Sep-17 12:37 33.881499 -116.881244 262 14789ft 358kts
23-Sep-17 12:38 33.868647 -116.998716 262 12845ft 348kts
23-Sep-17 12:39 33.856725 -117.107819 262 11681ft 305kts
23-Sep-17 12:40 33.845974 -117.203937 262 10657ft 280kts
23-Sep-17 12:41 33.835304 -117.297825 261 9929ft 278kts
23-Sep-17 12:42 33.824862 -117.389195 262 9701ft 268kts
23-Sep-17 12:43 33.810758 -117.472747 250 8847ft 251kts
23-Sep-17 12:44 33.798661 -117.551613 271 7722ft 258kts
23-Sep-17 12:45 33.818944 -117.635786 299 6474ft 264kts
23-Sep-17 12:46 33.855759 -117.706375 288 5164ft 251kts
23-Sep-17 12:47 33.829517 -117.773939 231 3907ft 217kts
23-Sep-17 12:48 33.781409 -117.806211 190 2628ft 188kts
23-Sep-17 12:49 33.738230 -117.829150 206 1288ft 169kts
23-Sep-17 12:50 33.703216 -117.851433 204 586ft 130kts
23-Sep-17 12:51 33.672833 -117.870597 207 64ft 71kts
23-Sep-17 12:52 33.669101 -117.871488 107 64ft 0kts
23-Sep-17 12:53 33.670719 -117.869250 40 64ft 17kts
23-Sep-17 12:54 33.674311 -117.866320 23 64ft 21kts
23-Sep-17 12:55 33.675340 -117.864857 118 64ft 0kts
23-Sep-17 12:56 33.675340 -117.864857 118 64ft 0kts
23-Sep-17 12:57 33.675340 -117.864857 118 64ft 0kts
23-Sep-17 12:58 33.675340 -117.864857 118 64ft 0kts

Navigation Log

Ident Type
Flight plan parsing failed, navigation log unavailable